sensor_id;sensor_type;location;lat;lon;timestamp;P1;durP1;ratioP1;P2;durP2;ratioP2
7883;SDS011;3987;51.458;7.238;2023-07-02T00:08:14;4.30;;;3.90;;
7883;SDS011;3987;51.458;7.238;2023-07-02T00:23:14;4.17;;;3.30;;
7883;SDS011;3987;51.458;7.238;2023-07-02T00:38:15;3.70;;;3.50;;
7883;SDS011;3987;51.458;7.238;2023-07-02T00:53:15;4.37;;;3.83;;
7883;SDS011;3987;51.458;7.238;2023-07-02T01:08:16;4.33;;;3.93;;
7883;SDS011;3987;51.458;7.238;2023-07-02T01:23:19;5.30;;;4.80;;
7883;SDS011;3987;51.458;7.238;2023-07-02T01:38:19;5.57;;;4.40;;
7883;SDS011;3987;51.458;7.238;2023-07-02T01:53:21;4.90;;;4.60;;
7883;SDS011;3987;51.458;7.238;2023-07-02T02:08:21;5.60;;;5.23;;
7883;SDS011;3987;51.458;7.238;2023-07-02T02:23:22;6.30;;;5.80;;
7883;SDS011;3987;51.458;7.238;2023-07-02T02:38:22;7.83;;;6.40;;
7883;SDS011;3987;51.458;7.238;2023-07-02T02:53:23;11.30;;;7.47;;
7883;SDS011;3987;51.458;7.238;2023-07-02T03:08:23;12.57;;;8.83;;
7883;SDS011;3987;51.458;7.238;2023-07-02T03:23:24;16.03;;;9.40;;
7883;SDS011;3987;51.458;7.238;2023-07-02T03:38:24;15.30;;;10.67;;
7883;SDS011;3987;51.458;7.238;2023-07-02T03:53:25;16.47;;;11.47;;
7883;SDS011;3987;51.458;7.238;2023-07-02T04:08:25;15.30;;;11.97;;
7883;SDS011;3987;51.458;7.238;2023-07-02T04:23:28;19.17;;;12.23;;
7883;SDS011;3987;51.458;7.238;2023-07-02T04:38:28;19.27;;;12.53;;
7883;SDS011;3987;51.458;7.238;2023-07-02T04:53:29;18.87;;;13.23;;
7883;SDS011;3987;51.458;7.238;2023-07-02T05:08:29;22.80;;;13.43;;
7883;SDS011;3987;51.458;7.238;2023-07-02T05:23:30;25.97;;;14.90;;
7883;SDS011;3987;51.458;7.238;2023-07-02T05:38:30;27.20;;;15.37;;
7883;SDS011;3987;51.458;7.238;2023-07-02T06:06:55;31.93;;;17.00;;
7883;SDS011;3987;51.458;7.238;2023-07-02T06:21:56;31.13;;;16.48;;
7883;SDS011;3987;51.458;7.238;2023-07-02T06:36:57;31.80;;;15.83;;
7883;SDS011;3987;51.458;7.238;2023-07-02T06:51:57;23.83;;;14.70;;
7883;SDS011;3987;51.458;7.238;2023-07-02T07:07:00;23.00;;;12.37;;
7883;SDS011;3987;51.458;7.238;2023-07-02T07:22:03;24.07;;;11.83;;
7883;SDS011;3987;51.458;7.238;2023-07-02T07:37:03;21.37;;;11.90;;
7883;SDS011;3987;51.458;7.238;2023-07-02T07:52:05;18.43;;;10.77;;
7883;SDS011;3987;51.458;7.238;2023-07-02T08:03:56;20.10;;;11.40;;
7883;SDS011;3987;51.458;7.238;2023-07-02T08:19:24;21.03;;;12.03;;
7883;SDS011;3987;51.458;7.238;2023-07-02T08:34:24;19.73;;;9.67;;
7883;SDS011;3987;51.458;7.238;2023-07-02T08:49:25;17.30;;;9.73;;
7883;SDS011;3987;51.458;7.238;2023-07-02T09:04:26;10.13;;;8.33;;
7883;SDS011;3987;51.458;7.238;2023-07-02T09:19:26;18.53;;;8.73;;
7883;SDS011;3987;51.458;7.238;2023-07-02T09:34:27;15.13;;;8.83;;
7883;SDS011;3987;51.458;7.238;2023-07-02T09:49:36;12.20;;;8.63;;
7883;SDS011;3987;51.458;7.238;2023-07-02T10:04:47;11.03;;;8.83;;
7883;SDS011;3987;51.458;7.238;2023-07-02T10:19:51;10.97;;;8.63;;
7883;SDS011;3987;51.458;7.238;2023-07-02T10:34:53;16.73;;;9.20;;
7883;SDS011;3987;51.458;7.238;2023-07-02T10:49:53;15.37;;;7.90;;
7883;SDS011;3987;51.458;7.238;2023-07-02T11:04:54;11.93;;;7.87;;
7883;SDS011;3987;51.458;7.238;2023-07-02T11:19:56;12.00;;;7.47;;
7883;SDS011;3987;51.458;7.238;2023-07-02T11:34:56;14.70;;;9.00;;
7883;SDS011;3987;51.458;7.238;2023-07-02T11:49:57;8.40;;;7.33;;
7883;SDS011;3987;51.458;7.238;2023-07-02T12:04:59;13.07;;;7.20;;
7883;SDS011;3987;51.458;7.238;2023-07-02T12:19:59;6.60;;;6.00;;
7883;SDS011;3987;51.458;7.238;2023-07-02T12:35:00;8.77;;;5.90;;
7883;SDS011;3987;51.458;7.238;2023-07-02T12:50:01;7.10;;;6.40;;
7883;SDS011;3987;51.458;7.238;2023-07-02T13:05:02;7.80;;;6.43;;
7883;SDS011;3987;51.458;7.238;2023-07-02T13:20:02;11.17;;;6.43;;
7883;SDS011;3987;51.458;7.238;2023-07-02T13:35:03;7.80;;;6.53;;
7883;SDS011;3987;51.458;7.238;2023-07-02T13:50:03;8.53;;;7.13;;
7883;SDS011;3987;51.458;7.238;2023-07-02T14:05:04;9.48;;;7.78;;
7883;SDS011;3987;51.458;7.238;2023-07-02T14:20:06;15.17;;;8.60;;
7883;SDS011;3987;51.458;7.238;2023-07-02T14:35:09;8.73;;;7.73;;
7883;SDS011;3987;51.458;7.238;2023-07-02T14:50:09;18.73;;;8.50;;
7883;SDS011;3987;51.458;7.238;2023-07-02T15:05:10;12.03;;;7.87;;
7883;SDS011;3987;51.458;7.238;2023-07-02T15:20:10;13.37;;;9.30;;
7883;SDS011;3987;51.458;7.238;2023-07-02T15:35:11;14.80;;;8.90;;
7883;SDS011;3987;51.458;7.238;2023-07-02T15:50:11;12.77;;;8.30;;
7883;SDS011;3987;51.458;7.238;2023-07-02T16:05:12;9.10;;;8.03;;
7883;SDS011;3987;51.458;7.238;2023-07-02T16:20:13;12.40;;;8.93;;
7883;SDS011;3987;51.458;7.238;2023-07-02T16:35:13;14.17;;;9.60;;
7883;SDS011;3987;51.458;7.238;2023-07-02T16:50:14;13.40;;;8.80;;
7883;SDS011;3987;51.458;7.238;2023-07-02T17:05:14;11.37;;;7.93;;
7883;SDS011;3987;51.458;7.238;2023-07-02T17:20:15;16.37;;;8.47;;
7883;SDS011;3987;51.458;7.238;2023-07-02T17:35:15;8.83;;;7.70;;
7883;SDS011;3987;51.458;7.238;2023-07-02T17:50:16;15.83;;;8.30;;
7883;SDS011;3987;51.458;7.238;2023-07-02T18:05:17;8.07;;;7.13;;
7883;SDS011;3987;51.458;7.238;2023-07-02T18:20:20;13.60;;;8.07;;
7883;SDS011;3987;51.458;7.238;2023-07-02T18:35:21;11.83;;;7.53;;
7883;SDS011;3987;51.458;7.238;2023-07-02T18:50:21;14.13;;;7.93;;
7883;SDS011;3987;51.458;7.238;2023-07-02T19:05:22;11.60;;;8.20;;
7883;SDS011;3987;51.458;7.238;2023-07-02T19:20:22;11.10;;;7.77;;
7883;SDS011;3987;51.458;7.238;2023-07-02T19:35:23;13.90;;;8.67;;
7883;SDS011;3987;51.458;7.238;2023-07-02T19:50:25;5.80;;;5.13;;
7883;SDS011;3987;51.458;7.238;2023-07-02T20:05:25;9.03;;;4.43;;
7883;SDS011;3987;51.458;7.238;2023-07-02T20:20:26;5.50;;;4.60;;
7883;SDS011;3987;51.458;7.238;2023-07-02T20:35:26;8.97;;;4.50;;
7883;SDS011;3987;51.458;7.238;2023-07-02T20:50:27;5.47;;;4.23;;
7883;SDS011;3987;51.458;7.238;2023-07-02T21:05:27;11.33;;;4.80;;
7883;SDS011;3987;51.458;7.238;2023-07-02T21:20:28;7.80;;;4.87;;
7883;SDS011;3987;51.458;7.238;2023-07-02T21:35:29;9.00;;;5.23;;
7883;SDS011;3987;51.458;7.238;2023-07-02T21:50:29;6.27;;;5.13;;
7883;SDS011;3987;51.458;7.238;2023-07-02T22:05:30;5.97;;;5.27;;
7883;SDS011;3987;51.458;7.238;2023-07-02T22:20:31;5.93;;;5.30;;
7883;SDS011;3987;51.458;7.238;2023-07-02T22:35:34;6.37;;;5.20;;
7883;SDS011;3987;51.458;7.238;2023-07-02T22:50:34;5.95;;;5.32;;
7883;SDS011;3987;51.458;7.238;2023-07-02T23:05:35;8.83;;;6.03;;
7883;SDS011;3987;51.458;7.238;2023-07-02T23:20:35;11.90;;;4.73;;
7883;SDS011;3987;51.458;7.238;2023-07-02T23:35:38;12.20;;;4.17;;
7883;SDS011;3987;51.458;7.238;2023-07-02T23:50:39;14.00;;;3.63;;
